Time;durP1;ratioP1;P1;durP2;ratioP2;P2;SDS_P1;SDS_P2;PMS_P1;PMS_P2;Temp;Humidity;BMP_temperature;BMP_pressure;BME280_temperature;BME280_humidity;BME280_pressure;Samples;Min_cycle;Max_cycle;Signal;HPM_P1;HPM_P2
2021/09/04 00:00:24;;;;;;;0.40;0.20;;;15.70;99.90;;;;;;5031604;28;20465;-75
2021/09/04 00:02:50;;;;;;;0.40;0.20;;;15.70;99.90;;;;;;5031301;28;20383;-75
2021/09/04 00:05:15;;;;;;;0.40;0.30;;;15.60;99.90;;;;;;5031644;28;20383;-75
2021/09/04 00:07:41;;;;;;;0.40;0.20;;;15.70;99.90;;;;;;5029518;28;20384;-75
2021/09/04 00:10:07;;;;;;;0.40;0.20;;;15.60;99.90;;;;;;5031572;28;20513;-75
2021/09/04 00:12:33;;;;;;;0.40;0.28;;;15.70;99.90;;;;;;5031179;28;20705;-75
2021/09/04 00:14:59;;;;;;;0.40;0.20;;;15.70;99.90;;;;;;5031623;28;20394;-75
2021/09/04 00:17:25;;;;;;;0.40;0.20;;;15.70;99.90;;;;;;5031213;28;20383;-75
2021/09/04 00:19:51;;;;;;;0.40;0.20;;;15.60;99.90;;;;;;5030579;28;20474;-76
2021/09/04 00:22:17;;;;;;;0.40;0.20;;;15.50;99.90;;;;;;5031262;28;20426;-75
2021/09/04 00:24:43;;;;;;;0.40;0.20;;;15.60;99.90;;;;;;5030529;28;20454;-75
2021/09/04 00:27:08;;;;;;;0.40;0.20;;;15.60;99.90;;;;;;5031362;28;20413;-75
2021/09/04 00:29:35;;;;;;;0.40;0.30;;;15.70;99.90;;;;;;5030583;28;20375;-76
2021/09/04 00:32:01;;;;;;;0.40;0.32;;;15.80;99.90;;;;;;5030960;28;20387;-75
2021/09/04 00:34:27;;;;;;;0.40;0.20;;;15.60;99.90;;;;;;5030844;28;20875;-75
2021/09/04 00:36:53;;;;;;;0.40;0.20;;;15.50;99.90;;;;;;5031483;28;20433;-75
2021/09/04 00:39:18;;;;;;;0.40;0.20;;;15.60;99.90;;;;;;5031013;28;20391;-75
2021/09/04 00:41:45;;;;;;;0.40;0.20;;;15.70;99.90;;;;;;5029797;28;20411;-75
2021/09/04 00:44:16;;;;;;;0.40;0.20;;;15.60;99.90;;;;;;5030941;28;20410;-75
2021/09/04 00:46:42;;;;;;;0.40;0.20;;;15.60;99.90;;;;;;5030543;28;20386;-76
2021/09/04 00:49:08;;;;;;;0.40;0.20;;;15.40;99.90;;;;;;5031118;28;20736;-75
2021/09/04 00:51:33;;;;;;;0.40;0.20;;;15.30;99.90;;;;;;5030298;28;20486;-76
2021/09/04 00:53:59;;;;;;;0.40;0.30;;;15.30;99.90;;;;;;5030461;28;20931;-76
2021/09/04 00:56:26;;;;;;;0.40;0.20;;;15.40;99.90;;;;;;5030547;28;20686;-75
2021/09/04 00:58:51;;;;;;;0.40;0.20;;;15.50;99.90;;;;;;5029807;28;20371;-75
2021/09/04 01:01:17;;;;;;;0.40;0.20;;;15.50;99.90;;;;;;5030687;28;20406;-76
2021/09/04 01:03:43;;;;;;;0.40;0.20;;;15.50;99.90;;;;;;5040016;28;20424;-75
2021/09/04 01:06:11;;;;;;;0.40;0.23;;;15.50;99.90;;;;;;5049524;28;20428;-75
2021/09/04 01:08:37;;;;;;;0.40;0.23;;;15.40;99.90;;;;;;5034273;28;20456;-76
2021/09/04 01:11:03;;;;;;;0.40;0.20;;;15.10;99.90;;;;;;5030601;28;20387;-75
2021/09/04 01:13:28;;;;;;;0.40;0.20;;;15.10;99.90;;;;;;5030739;28;20533;-76
2021/09/04 01:15:54;;;;;;;0.40;0.20;;;15.00;99.90;;;;;;5030201;28;20761;-76
2021/09/04 01:18:21;;;;;;;0.40;0.20;;;14.90;99.90;;;;;;5030385;28;20380;-76
2021/09/04 01:20:47;;;;;;;0.40;0.20;;;14.90;99.90;;;;;;5028762;28;20493;-76
2021/09/04 01:23:12;;;;;;;0.40;0.20;;;14.90;99.90;;;;;;5030337;28;20411;-75
2021/09/04 01:25:43;;;;;;;0.40;0.20;;;14.90;99.90;;;;;;5029741;28;20728;-76
2021/09/04 01:28:09;;;;;;;0.40;0.30;;;14.90;99.90;;;;;;5030421;28;20453;-76
2021/09/04 01:30:35;;;;;;;0.90;0.70;;;14.90;99.90;;;;;;5029911;28;20410;-76
2021/09/04 01:33:00;;;;;;;0.40;0.20;;;14.90;99.90;;;;;;5030867;28;20768;-75
2021/09/04 01:35:26;;;;;;;0.40;0.20;;;14.90;99.90;;;;;;5030256;28;20387;-76
2021/09/04 01:37:52;;;;;;;0.40;0.20;;;14.80;99.90;;;;;;5030025;28;20472;-75
2021/09/04 01:40:19;;;;;;;0.40;0.20;;;14.90;99.90;;;;;;5030409;28;20387;-75
2021/09/04 01:42:46;;;;;;;0.40;0.20;;;15.00;99.90;;;;;;5028753;28;20410;-75
2021/09/04 01:45:13;;;;;;;0.40;0.20;;;14.90;99.90;;;;;;5030649;28;20907;-75
2021/09/04 01:47:40;;;;;;;0.40;0.20;;;15.00;99.90;;;;;;5029914;28;20831;-75
2021/09/04 01:50:10;;;;;;;0.40;0.20;;;15.00;99.90;;;;;;5030169;28;20383;-75
2021/09/04 01:52:38;;;;;;;0.40;0.30;;;14.90;99.90;;;;;;5030918;28;20387;-76
2021/09/04 01:55:05;;;;;;;0.40;0.20;;;14.90;99.90;;;;;;5034019;28;20863;-76
2021/09/04 01:57:31;;;;;;;0.40;0.20;;;14.80;99.90;;;;;;5034089;28;20437;-75
2021/09/04 01:59:57;;;;;;;0.40;0.20;;;14.80;99.90;;;;;;5032976;28;20387;-75
2021/09/04 02:02:22;;;;;;;0.40;0.20;;;14.60;99.90;;;;;;5033843;28;20885;-75
2021/09/04 02:04:48;;;;;;;0.40;0.20;;;14.50;99.90;;;;;;5032963;28;20386;-75
2021/09/04 02:07:14;;;;;;;0.40;0.20;;;14.40;99.90;;;;;;5033748;28;20413;-75
2021/09/04 02:09:39;;;;;;;0.40;0.20;;;14.40;99.90;;;;;;5032889;28;20419;-75
2021/09/04 02:12:06;;;;;;;0.40;0.20;;;14.50;99.90;;;;;;5033825;28;20398;-75
2021/09/04 02:14:32;;;;;;;0.40;0.20;;;14.60;99.90;;;;;;5032271;28;20890;-75
2021/09/04 02:16:57;;;;;;;0.40;0.20;;;14.50;99.90;;;;;;5033065;28;20771;-75
2021/09/04 02:19:23;;;;;;;0.40;0.20;;;14.30;99.90;;;;;;5033598;28;20394;-75
2021/09/04 02:21:49;;;;;;;0.40;0.20;;;14.30;99.90;;;;;;5032664;28;20427;-75
2021/09/04 02:24:15;;;;;;;0.40;0.20;;;14.30;99.90;;;;;;5033399;28;20464;-75
2021/09/04 02:26:40;;;;;;;0.40;0.20;;;14.30;99.90;;;;;;5032842;28;20466;-75
2021/09/04 02:29:06;;;;;;;0.40;0.25;;;14.30;99.90;;;;;;5033166;28;20786;-76
2021/09/04 02:31:31;;;;;;;0.40;0.20;;;14.40;99.90;;;;;;5033260;28;20383;-75
2021/09/04 02:33:57;;;;;;;0.40;0.20;;;14.40;99.90;;;;;;5032735;28;20386;-75
2021/09/04 02:36:23;;;;;;;0.40;0.20;;;14.40;99.90;;;;;;5033250;28;20387;-75
2021/09/04 02:38:50;;;;;;;0.40;0.20;;;14.40;99.90;;;;;;5014817;28;20402;-75
2021/09/04 02:41:17;;;;;;;0.40;0.20;;;14.40;99.90;;;;;;5033034;28;20440;-75
2021/09/04 02:43:42;;;;;;;0.40;0.20;;;14.30;99.90;;;;;;5032533;28;20791;-75
2021/09/04 02:46:09;;;;;;;0.40;0.20;;;14.30;99.90;;;;;;5032994;28;20377;-75
2021/09/04 02:48:35;;;;;;;0.40;0.20;;;14.30;99.90;;;;;;5032769;28;20840;-75
2021/09/04 02:51:01;;;;;;;0.40;0.30;;;14.20;99.90;;;;;;5032948;28;20387;-75
2021/09/04 02:53:27;;;;;;;0.40;0.20;;;14.30;99.90;;;;;;5032986;28;20448;-75
2021/09/04 02:55:52;;;;;;;0.40;0.20;;;14.20;99.90;;;;;;5032265;28;20828;-75
2021/09/04 02:58:18;;;;;;;0.40;0.20;;;14.30;99.90;;;;;;5032640;28;20383;-75
2021/09/04 03:00:44;;;;;;;0.40;0.20;;;14.30;99.90;;;;;;5032010;28;20403;-75
2021/09/04 03:03:10;;;;;;;0.40;0.20;;;14.30;99.90;;;;;;5032558;28;20418;-75
2021/09/04 03:05:36;;;;;;;0.40;0.20;;;14.20;99.90;;;;;;5031672;28;20398;-75
2021/09/04 03:08:02;;;;;;;0.40;0.20;;;14.20;99.90;;;;;;5032444;28;20476;-75
2021/09/04 03:10:28;;;;;;;0.40;0.20;;;14.10;99.90;;;;;;5032699;28;20779;-75
2021/09/04 03:12:54;;;;;;;0.40;0.20;;;14.10;99.90;;;;;;5032040;28;20708;-74
2021/09/04 03:15:20;;;;;;;0.40;0.20;;;14.00;99.90;;;;;;5032582;28;20388;-74
2021/09/04 03:17:46;;;;;;;0.40;0.20;;;14.00;99.90;;;;;;5031944;28;20481;-75
2021/09/04 03:20:12;;;;;;;0.40;0.20;;;13.90;99.90;;;;;;5032101;28;20840;-75
2021/09/04 03:22:38;;;;;;;0.40;0.20;;;13.90;99.90;;;;;;5031787;28;20407;-78
2021/09/04 03:25:05;;;;;;;0.40;0.20;;;13.90;99.90;;;;;;5032357;28;20728;-75
2021/09/04 03:27:31;;;;;;;0.40;0.20;;;13.80;99.90;;;;;;5032209;28;20375;-75
2021/09/04 03:29:57;;;;;;;0.40;0.30;;;14.00;99.90;;;;;;5031596;28;20466;-74
2021/09/04 03:32:23;;;;;;;0.40;0.20;;;14.00;99.90;;;;;;5032336;28;20878;-73
2021/09/04 03:34:50;;;;;;;0.40;0.20;;;14.20;99.90;;;;;;5031573;28;20383;-73
2021/09/04 03:37:15;;;;;;;0.40;0.20;;;14.10;99.90;;;;;;5031917;28;20462;-73
2021/09/04 03:39:41;;;;;;;0.40;0.20;;;14.10;99.90;;;;;;5031476;28;20486;-73
2021/09/04 03:42:07;;;;;;;0.40;0.20;;;14.00;99.90;;;;;;5031565;28;20445;-73
2021/09/04 03:44:32;;;;;;;0.40;0.20;;;14.10;99.90;;;;;;5031697;28;20926;-73
2021/09/04 03:46:58;;;;;;;0.40;0.20;;;14.20;99.90;;;;;;5031213;28;20751;-73
2021/09/04 03:49:23;;;;;;;0.40;0.20;;;14.00;99.90;;;;;;5032220;28;20503;-73
2021/09/04 03:51:49;;;;;;;0.40;0.20;;;14.20;99.90;;;;;;5031167;28;20478;-73
2021/09/04 03:54:15;;;;;;;0.40;0.20;;;14.30;99.90;;;;;;5031728;28;20917;-73
2021/09/04 03:56:41;;;;;;;0.40;0.20;;;14.30;99.90;;;;;;5031127;28;20852;-74
2021/09/04 03:59:06;;;;;;;0.40;0.20;;;14.20;99.90;;;;;;5030443;28;20864;-73
2021/09/04 04:01:33;;;;;;;0.40;0.20;;;14.10;99.90;;;;;;5031579;28;20410;-74
2021/09/04 04:03:58;;;;;;;0.40;0.20;;;14.20;99.90;;;;;;5031516;28;20379;-74
2021/09/04 04:06:24;;;;;;;0.40;0.20;;;14.10;99.90;;;;;;5031806;28;20388;-74
2021/09/04 04:08:50;;;;;;;0.40;0.20;;;14.00;99.90;;;;;;5031086;28;20383;-74
2021/09/04 04:11:15;;;;;;;0.40;0.20;;;13.80;99.90;;;;;;5030433;28;20457;-74
2021/09/04 04:13:41;;;;;;;0.40;0.20;;;13.80;99.90;;;;;;5031166;28;20399;-75
2021/09/04 04:16:07;;;;;;;0.40;0.20;;;13.80;99.90;;;;;;5030381;28;20391;-74
2021/09/04 04:18:34;;;;;;;0.40;0.20;;;13.80;99.90;;;;;;5030530;28;20383;-73
2021/09/04 04:21:01;;;;;;;0.40;0.20;;;13.80;99.90;;;;;;5013295;28;20471;-74
2021/09/04 04:23:26;;;;;;;0.40;0.20;;;13.80;99.90;;;;;;5031245;28;20435;-73
2021/09/04 04:25:52;;;;;;;0.40;0.20;;;13.90;99.90;;;;;;5030799;28;20799;-73
2021/09/04 04:28:18;;;;;;;0.40;0.20;;;13.80;99.90;;;;;;5031266;28;20440;-74
2021/09/04 04:30:44;;;;;;;0.60;0.60;;;13.80;99.90;;;;;;5030719;28;20391;-74
2021/09/04 04:33:10;;;;;;;0.40;0.20;;;13.80;99.90;;;;;;5031213;28;20383;-74
2021/09/04 04:35:36;;;;;;;0.40;0.30;;;13.80;99.90;;;;;;5031123;28;20478;-74
2021/09/04 04:38:01;;;;;;;0.40;0.20;;;13.90;99.90;;;;;;5030559;28;20746;-74
2021/09/04 04:40:27;;;;;;;0.40;0.20;;;13.90;99.90;;;;;;5031350;28;20379;-74
2021/09/04 04:42:53;;;;;;;0.40;0.20;;;14.00;99.90;;;;;;5030429;28;20392;-74
2021/09/04 04:45:19;;;;;;;0.40;0.40;;;14.10;99.90;;;;;;5030951;28;20386;-74
2021/09/04 04:47:44;;;;;;;0.40;0.20;;;14.20;99.90;;;;;;5030905;28;20419;-74
2021/09/04 04:50:10;;;;;;;0.40;0.20;;;14.00;99.90;;;;;;5031003;28;20383;-73
2021/09/04 04:52:36;;;;;;;0.40;0.20;;;14.10;99.90;;;;;;5029565;28;20490;-74
2021/09/04 04:55:02;;;;;;;0.40;0.20;;;14.10;99.90;;;;;;5030368;28;20847;-74
2021/09/04 04:57:28;;;;;;;0.40;0.20;;;14.00;99.90;;;;;;5031053;28;20874;-74
2021/09/04 04:59:54;;;;;;;0.40;0.20;;;13.90;99.90;;;;;;5030262;28;20387;-74
2021/09/04 05:02:19;;;;;;;0.40;0.20;;;14.00;99.90;;;;;;5031166;28;20815;-73
2021/09/04 05:04:45;;;;;;;0.40;0.20;;;14.00;99.90;;;;;;5030844;28;20387;-74
2021/09/04 05:07:10;;;;;;;0.40;0.20;;;14.10;99.90;;;;;;5030759;28;20387;-73
2021/09/04 05:09:36;;;;;;;0.40;0.20;;;14.20;99.90;;;;;;5031224;28;20383;-74
2021/09/04 05:12:02;;;;;;;0.70;0.70;;;14.10;99.90;;;;;;5030389;28;20386;-74
2021/09/04 05:14:28;;;;;;;0.40;0.20;;;14.00;99.90;;;;;;5031251;28;20390;-74
2021/09/04 05:16:53;;;;;;;0.40;0.20;;;14.00;99.90;;;;;;5030361;28;20818;-74
2021/09/04 05:19:19;;;;;;;0.40;0.20;;;13.80;99.90;;;;;;5031015;28;20379;-74
2021/09/04 05:21:45;;;;;;;0.40;0.20;;;13.90;99.90;;;;;;5030151;28;20772;-76
2021/09/04 05:24:10;;;;;;;0.40;0.40;;;13.90;99.90;;;;;;5029961;28;20466;-74
2021/09/04 05:26:36;;;;;;;1.00;0.90;;;13.90;99.90;;;;;;5030903;28;20375;-74
2021/09/04 05:29:02;;;;;;;0.40;0.20;;;13.80;99.90;;;;;;5033534;28;20429;-74
2021/09/04 05:31:28;;;;;;;0.40;0.20;;;13.80;99.90;;;;;;5034374;28;20399;-74
2021/09/04 05:33:54;;;;;;;0.40;0.20;;;13.80;99.90;;;;;;5033808;28;20382;-74
2021/09/04 05:36:19;;;;;;;0.40;0.30;;;13.90;99.90;;;;;;5034698;28;20751;-74
2021/09/04 05:38:45;;;;;;;0.40;0.20;;;13.90;99.90;;;;;;5034208;28;20865;-74
2021/09/04 05:41:11;;;;;;;0.40;0.20;;;13.90;99.90;;;;;;5032966;28;20456;-73
2021/09/04 05:43:36;;;;;;;0.40;0.20;;;14.00;99.90;;;;;;5034364;28;20403;-73
2021/09/04 05:46:02;;;;;;;0.40;0.20;;;14.00;99.90;;;;;;5016304;28;20387;-73
2021/09/04 05:48:28;;;;;;;0.40;0.20;;;13.90;99.90;;;;;;5034103;28;20794;-74
2021/09/04 05:50:53;;;;;;;0.40;0.20;;;14.00;99.90;;;;;;5033860;28;20445;-74
2021/09/04 05:53:19;;;;;;;0.40;0.20;;;14.00;99.90;;;;;;5034091;28;20442;-73
2021/09/04 05:55:44;;;;;;;0.40;0.20;;;14.10;99.90;;;;;;5034684;28;20391;-74
2021/09/04 05:58:10;;;;;;;0.40;0.20;;;14.20;99.90;;;;;;5033873;28;20383;-74
2021/09/04 06:00:36;;;;;;;0.40;0.20;;;14.30;99.90;;;;;;5033940;28;20434;-74
2021/09/04 06:03:01;;;;;;;0.70;0.50;;;14.30;99.90;;;;;;5033880;28;20384;-74
2021/09/04 06:05:28;;;;;;;0.40;0.20;;;14.40;99.90;;;;;;5034181;28;20375;-73
2021/09/04 06:07:54;;;;;;;0.40;0.20;;;14.40;99.90;;;;;;5029884;28;20511;-76
2021/09/04 06:10:20;;;;;;;0.40;0.20;;;14.40;99.90;;;;;;5024380;28;20422;-76
2021/09/04 06:12:46;;;;;;;0.40;0.20;;;14.40;99.90;;;;;;5022202;28;20438;-74
2021/09/04 06:15:12;;;;;;;0.40;0.20;;;14.50;99.90;;;;;;5019598;28;20407;-75
2021/09/04 06:17:38;;;;;;;0.40;0.20;;;14.50;99.90;;;;;;5026167;28;20407;-75
2021/09/04 06:20:09;;;;;;;0.40;0.20;;;14.60;99.90;;;;;;5018331;28;21175;-75
2021/09/04 06:22:35;;;;;;;0.40;0.20;;;14.60;99.90;;;;;;5019159;28;21110;-76
2021/09/04 06:25:01;;;;;;;0.40;0.20;;;14.70;99.90;;;;;;5019664;28;20385;-76
2021/09/04 06:27:27;;;;;;;0.40;0.20;;;14.80;99.90;;;;;;5020592;28;20388;-76
2021/09/04 06:29:52;;;;;;;0.40;0.20;;;14.90;99.90;;;;;;5018145;28;20509;-75
2021/09/04 06:32:18;;;;;;;0.40;0.20;;;15.00;99.90;;;;;;5019985;28;20474;-76
2021/09/04 06:34:43;;;;;;;0.40;0.30;;;15.10;99.90;;;;;;5020274;28;20403;-75
2021/09/04 06:37:09;;;;;;;0.40;0.20;;;15.20;99.90;;;;;;5019511;28;20387;-75
2021/09/04 06:39:35;;;;;;;0.40;0.20;;;15.30;99.90;;;;;;5017312;28;20387;-75
2021/09/04 06:42:01;;;;;;;0.40;0.30;;;15.40;99.90;;;;;;5019703;28;20426;-75
2021/09/04 06:44:26;;;;;;;0.40;0.30;;;15.40;99.90;;;;;;5019366;28;20486;-76
2021/09/04 06:46:52;;;;;;;0.40;0.20;;;15.40;99.90;;;;;;5021431;28;20494;-75
2021/09/04 06:49:18;;;;;;;0.40;0.20;;;15.50;99.90;;;;;;5026722;28;20396;-76
2021/09/04 06:51:43;;;;;;;0.40;0.20;;;15.60;99.90;;;;;;5029935;28;20529;-75
2021/09/04 06:54:09;;;;;;;0.40;0.20;;;15.70;99.90;;;;;;5029607;28;20925;-75
2021/09/04 06:56:35;;;;;;;0.40;0.20;;;15.80;99.90;;;;;;5030107;28;20415;-75
2021/09/04 06:59:00;;;;;;;0.40;0.20;;;15.90;99.90;;;;;;5029607;28;20395;-74
2021/09/04 07:01:26;;;;;;;0.40;0.20;;;15.90;99.90;;;;;;5003990;28;20532;-77
2021/09/04 07:03:52;;;;;;;0.40;0.30;;;16.00;99.90;;;;;;5012146;28;20395;-76
2021/09/04 07:06:17;;;;;;;0.40;0.20;;;16.30;99.90;;;;;;5012137;28;20391;-76
2021/09/04 07:08:43;;;;;;;0.40;0.30;;;16.50;99.90;;;;;;5013284;28;20411;-75
2021/09/04 07:11:09;;;;;;;0.40;0.20;;;16.70;99.90;;;;;;5007187;28;20399;-77
2021/09/04 07:13:34;;;;;;;0.40;0.20;;;16.70;99.90;;;;;;5016838;28;20395;-76
2021/09/04 07:16:00;;;;;;;0.40;0.20;;;16.80;99.90;;;;;;5009694;28;20433;-77
2021/09/04 07:18:26;;;;;;;0.40;0.20;;;16.90;99.90;;;;;;5014163;28;20739;-76
2021/09/04 07:20:52;;;;;;;0.40;0.20;;;16.90;99.90;;;;;;5016236;28;20414;-76
2021/09/04 07:23:18;;;;;;;0.40;0.30;;;17.00;99.90;;;;;;5016499;28;20403;-77
2021/09/04 07:25:44;;;;;;;0.40;0.20;;;17.00;99.90;;;;;;5017468;28;20906;-76
2021/09/04 07:28:10;;;;;;;0.40;0.20;;;17.10;99.90;;;;;;5015503;28;20387;-76
2021/09/04 07:30:36;;;;;;;0.40;0.20;;;17.20;99.90;;;;;;5016184;28;20391;-76
2021/09/04 07:33:02;;;;;;;0.40;0.20;;;17.30;99.90;;;;;;5019167;28;20747;-75
2021/09/04 07:35:28;;;;;;;0.40;0.20;;;17.30;99.90;;;;;;5019881;28;20395;-76
2021/09/04 07:37:54;;;;;;;0.40;0.30;;;17.30;99.90;;;;;;5015375;28;20771;-76
2021/09/04 07:40:19;;;;;;;0.40;0.30;;;17.40;99.90;;;;;;5009944;28;20387;-76
2021/09/04 07:42:45;;;;;;;0.40;0.20;;;17.60;99.90;;;;;;5014718;28;20415;-76
2021/09/04 07:45:11;;;;;;;0.40;0.20;;;17.70;99.90;;;;;;5015231;28;20434;-75
2021/09/04 07:47:36;;;;;;;0.40;0.20;;;17.80;99.90;;;;;;5016146;28;20395;-75
2021/09/04 07:50:03;;;;;;;0.40;0.20;;;17.80;99.90;;;;;;5011287;28;20450;-75
2021/09/04 07:52:28;;;;;;;0.40;0.20;;;17.80;99.90;;;;;;5016179;28;20403;-75
2021/09/04 07:54:54;;;;;;;0.40;0.20;;;17.90;99.90;;;;;;5015577;28;20414;-76
2021/09/04 07:57:19;;;;;;;0.40;0.20;;;18.10;99.90;;;;;;5016603;28;20419;-77
2021/09/04 07:59:45;;;;;;;0.40;0.20;;;18.20;99.90;;;;;;5012607;28;20495;-75
2021/09/04 08:02:11;;;;;;;0.40;0.20;;;18.30;99.90;;;;;;5015653;28;21249;-75
2021/09/04 08:04:36;;;;;;;0.40;0.20;;;18.30;99.90;;;;;;5015815;28;20402;-76
2021/09/04 08:07:02;;;;;;;0.40;0.30;;;18.40;99.90;;;;;;5015735;28;20406;-77
2021/09/04 08:09:28;;;;;;;0.40;0.30;;;18.40;99.90;;;;;;5012180;28;20398;-75
2021/09/04 08:11:54;;;;;;;0.40;0.30;;;18.40;99.90;;;;;;5016780;28;20398;-78
2021/09/04 08:14:19;;;;;;;0.40;0.20;;;18.60;99.90;;;;;;5018419;28;20394;-76
2021/09/04 08:16:45;;;;;;;0.40;0.20;;;18.60;99.90;;;;;;5018451;28;20397;-78
2021/09/04 08:19:11;;;;;;;0.40;0.20;;;18.60;99.90;;;;;;4996996;28;20897;-77
2021/09/04 08:21:37;;;;;;;0.40;0.20;;;18.60;99.90;;;;;;5017022;28;20907;-76
2021/09/04 08:24:03;;;;;;;0.40;0.20;;;18.60;99.90;;;;;;5018157;28;20391;-78
2021/09/04 08:26:29;;;;;;;0.40;0.30;;;18.70;99.90;;;;;;5017919;28;20398;-77
2021/09/04 08:28:56;;;;;;;0.40;0.20;;;18.80;99.90;;;;;;5014133;28;20523;-77
2021/09/04 08:31:22;;;;;;;0.40;0.20;;;18.90;99.90;;;;;;5018290;28;20509;-76
2021/09/04 08:33:48;;;;;;;0.40;0.20;;;18.90;99.90;;;;;;5017160;28;20403;-75
2021/09/04 08:36:14;;;;;;;0.40;0.20;;;18.90;99.90;;;;;;5004954;28;20461;-76
2021/09/04 08:38:39;;;;;;;0.40;0.20;;;19.10;99.90;;;;;;5015193;28;21233;-74
2021/09/04 08:41:05;;;;;;;0.40;0.20;;;19.10;99.90;;;;;;5017184;28;20883;-76
2021/09/04 08:43:31;;;;;;;0.40;0.20;;;19.00;99.90;;;;;;5017907;28;21167;-75
2021/09/04 08:45:57;;;;;;;0.40;0.20;;;19.30;99.90;;;;;;5017744;28;20464;-74
2021/09/04 08:48:23;;;;;;;0.40;0.20;;;19.40;99.90;;;;;;5014863;28;21784;-76
2021/09/04 08:50:52;;;;;;;0.40;0.20;;;19.40;99.90;;;;;;5018066;28;20486;-75
2021/09/04 08:53:19;;;;;;;0.40;0.20;;;19.50;99.90;;;;;;5017230;28;20387;-76
2021/09/04 08:55:45;;;;;;;0.40;0.30;;;19.50;99.90;;;;;;5017826;28;20391;-75
2021/09/04 08:58:11;;;;;;;0.40;0.20;;;19.60;99.90;;;;;;5015888;28;20387;-75
2021/09/04 09:00:39;;;;;;;0.40;0.20;;;19.70;99.90;;;;;;5016612;28;20855;-76
2021/09/04 09:03:06;;;;;;;0.40;0.20;;;19.90;99.90;;;;;;5018886;28;20409;-75
2021/09/04 09:05:43;;;;;;;0.40;0.20;;;19.90;99.90;;;;;;5022078;28;20411;-74
2021/09/04 09:08:16;;;;;;;0.40;0.20;;;19.90;99.90;;;;;;5019849;28;20395;-76
2021/09/04 09:10:41;;;;;;;0.40;0.20;;;20.10;99.90;;;;;;5021516;28;20387;-74
2021/09/04 09:13:07;;;;;;;0.40;0.30;;;20.20;99.90;;;;;;5021461;28;20379;-76
2021/09/04 09:15:37;;;;;;;0.40;0.30;;;20.20;99.90;;;;;;5022715;28;20391;-74
2021/09/04 09:18:10;;;;;;;0.40;0.20;;;20.20;99.90;;;;;;5020708;28;20592;-75
2021/09/04 09:20:55;;;;;;;0.50;0.40;;;20.10;99.90;;;;;;5020759;28;20399;-78
2021/09/04 09:23:22;;;;;;;0.40;0.20;;;20.30;99.90;;;;;;5003099;28;20415;-76
2021/09/04 09:25:48;;;;;;;0.40;0.30;;;20.50;99.90;;;;;;5021487;28;20886;-74
2021/09/04 09:28:19;;;;;;;0.40;0.20;;;20.60;99.90;;;;;;5019265;28;20407;-78
2021/09/04 09:30:56;;;;;;;0.40;0.20;;;20.60;99.90;;;;;;5021236;28;20875;-76
2021/09/04 09:33:23;;;;;;;0.40;0.20;;;20.60;99.90;;;;;;5020954;28;20415;-75
2021/09/04 09:35:57;;;;;;;0.40;0.25;;;20.50;99.90;;;;;;5020754;28;20422;-76
2021/09/04 09:38:33;;;;;;;0.40;0.20;;;20.40;99.90;;;;;;5017989;28;20403;-78
2021/09/04 09:41:00;;;;;;;0.40;0.20;;;20.60;99.90;;;;;;5020929;28;20458;-76
2021/09/04 09:43:29;;;;;;;0.40;0.20;;;20.80;99.90;;;;;;5021327;28;20402;-75
2021/09/04 09:46:07;;;;;;;0.40;0.20;;;20.90;99.90;;;;;;5020750;28;20395;-73
2021/09/04 09:48:35;;;;;;;0.40;0.20;;;20.80;99.90;;;;;;5017647;28;20421;-74
2021/09/04 09:51:04;;;;;;;0.40;0.20;;;20.80;99.90;;;;;;5018697;28;20454;-75
2021/09/04 09:53:30;;;;;;;0.40;0.20;;;20.80;99.90;;;;;;5020938;28;20390;-74
2021/09/04 09:55:58;;;;;;;0.40;0.20;;;20.80;99.90;;;;;;5021363;28;20887;-77
2021/09/04 09:58:25;;;;;;;0.40;0.20;;;20.90;99.90;;;;;;5018238;28;20421;-73
2021/09/04 10:00:53;;;;;;;0.40;0.30;;;21.10;99.90;;;;;;5019459;28;20418;-75
2021/09/04 10:03:21;;;;;;;0.40;0.20;;;21.10;99.90;;;;;;5025890;28;20621;-74
2021/09/04 10:05:47;;;;;;;0.40;0.30;;;21.20;99.90;;;;;;5020760;28;20494;-74
2021/09/04 10:08:17;;;;;;;0.40;0.30;;;21.30;99.90;;;;;;5018602;28;20391;-76
2021/09/04 10:10:44;;;;;;;0.60;0.50;;;21.40;99.90;;;;;;5020685;28;20478;-73
2021/09/04 10:13:14;;;;;;;0.40;0.20;;;21.30;99.90;;;;;;5002547;28;20383;-74
2021/09/04 10:15:45;;;;;;;0.40;0.20;;;21.20;99.90;;;;;;5020529;28;20892;-72
2021/09/04 10:18:12;;;;;;;0.40;0.20;;;21.30;99.90;;;;;;5024764;28;21592;-76
2021/09/04 10:20:38;;;;;;;0.40;0.20;;;21.40;99.90;;;;;;5019189;28;20383;-76
2021/09/04 10:23:35;;;;;;;0.40;0.28;;;21.50;99.90;;;;;;5020066;28;20430;-75
2021/09/04 10:26:23;;;;;;;0.40;0.20;;;21.60;99.90;;;;;;5021043;28;20724;-76
2021/09/04 10:29:10;;;;;;;0.40;0.20;;;21.80;99.90;;;;;;5017950;28;20514;-73
2021/09/04 10:31:56;;;;;;;0.40;0.20;;;22.00;99.90;;;;;;5020342;28;20478;-75
2021/09/04 10:34:29;;;;;;;0.40;0.25;;;21.90;99.90;;;;;;5019647;28;20785;-75
2021/09/04 10:37:02;;;;;;;0.40;0.20;;;22.00;99.90;;;;;;5019863;28;20399;-73
2021/09/04 10:39:46;;;;;;;0.40;0.20;;;22.00;99.90;;;;;;5016569;28;20481;-73
2021/09/04 10:42:15;;;;;;;0.40;0.20;;;22.30;99.90;;;;;;5020069;28;20422;-76
2021/09/04 10:45:03;;;;;;;0.40;0.20;;;22.40;99.90;;;;;;5019982;28;20488;-73
2021/09/04 10:47:29;;;;;;;0.40;0.20;;;22.50;99.90;;;;;;5018184;28;20422;-74
2021/09/04 10:50:13;;;;;;;0.40;0.30;;;22.50;99.90;;;;;;5015997;28;20399;-73
2021/09/04 10:53:05;;;;;;;0.40;0.20;;;22.60;99.90;;;;;;5019850;28;20395;-76
2021/09/04 10:55:35;;;;;;;0.40;0.30;;;22.70;99.90;;;;;;5019037;28;20399;-75
2021/09/04 10:58:07;;;;;;;0.40;0.20;;;22.80;99.90;;;;;;5017465;28;20418;-76
2021/09/04 11:00:44;;;;;;;0.40;0.20;;;22.90;99.90;;;;;;5016828;28;20461;-74
2021/09/04 11:03:12;;;;;;;0.40;0.30;;;23.00;99.90;;;;;;5015300;28;21534;-75
2021/09/04 11:05:44;;;;;;;0.40;0.20;;;23.10;99.70;;;;;;5019623;28;20402;-75
2021/09/04 11:08:27;;;;;;;0.40;0.20;;;23.20;98.40;;;;;;5017205;28;20403;-74
2021/09/04 11:11:24;;;;;;;0.40;0.20;;;23.30;98.80;;;;;;5019645;28;20894;-71
2021/09/04 11:13:52;;;;;;;0.40;0.20;;;23.30;98.90;;;;;;5018892;28;20419;-75
2021/09/04 11:16:40;;;;;;;0.40;0.20;;;23.50;97.90;;;;;;5016489;28;20449;-73
2021/09/04 11:19:12;;;;;;;0.40;0.20;;;23.50;97.60;;;;;;5016238;28;20395;-74
2021/09/04 11:21:57;;;;;;;0.40;0.20;;;23.80;97.80;;;;;;5019381;28;20427;-75
2021/09/04 11:24:27;;;;;;;0.40;0.20;;;23.90;97.50;;;;;;5018443;28;20495;-74
2021/09/04 11:27:05;;;;;;;0.40;0.20;;;24.00;97.00;;;;;;5017777;28;20399;-74
2021/09/04 11:29:42;;;;;;;0.40;0.20;;;24.10;97.80;;;;;;5015531;28;20413;-75
2021/09/04 11:32:10;;;;;;;0.40;0.30;;;24.40;95.50;;;;;;5017946;28;20410;-74
2021/09/04 11:34:47;;;;;;;0.40;0.20;;;24.80;94.90;;;;;;5019369;28;20932;-74
2021/09/04 11:37:14;;;;;;;0.40;0.30;;;25.00;93.40;;;;;;5030474;28;20403;-76
2021/09/04 11:39:40;;;;;;;0.40;0.30;;;25.30;93.30;;;;;;5015812;28;20410;-75
2021/09/04 11:42:05;;;;;;;0.40;0.30;;;25.40;92.50;;;;;;5018224;28;20410;-77
2021/09/04 11:44:31;;;;;;;0.40;0.20;;;25.50;91.80;;;;;;5019146;28;20410;-74
2021/09/04 11:46:57;;;;;;;0.40;0.20;;;25.60;92.20;;;;;;5017244;28;20407;-73
2021/09/04 11:49:23;;;;;;;0.40;0.30;;;26.00;90.90;;;;;;5013787;28;20387;-74
2021/09/04 11:51:55;;;;;;;0.40;0.30;;;25.80;90.60;;;;;;5016634;28;20933;-74
2021/09/04 11:54:27;;;;;;;0.40;0.30;;;25.90;91.00;;;;;;5017674;28;20387;-73
2021/09/04 11:56:53;;;;;;;0.40;0.30;;;25.70;91.10;;;;;;5017972;28;20390;-77
2021/09/04 11:59:19;;;;;;;0.40;0.20;;;25.70;90.50;;;;;;5013748;28;20522;-74
2021/09/04 12:01:46;;;;;;;0.40;0.30;;;25.90;89.10;;;;;;5015542;28;20903;-73
2021/09/04 12:04:12;;;;;;;0.40;0.30;;;26.00;89.40;;;;;;5017657;28;20752;-74
2021/09/04 12:06:49;;;;;;;0.40;0.20;;;26.30;89.10;;;;;;5018225;28;20418;-73
2021/09/04 12:09:15;;;;;;;0.40;0.30;;;25.80;87.30;;;;;;5013022;28;20394;-73
2021/09/04 12:11:42;;;;;;;0.40;0.20;;;25.80;87.90;;;;;;5015891;28;21198;-73
2021/09/04 12:14:08;;;;;;;0.40;0.30;;;25.80;87.80;;;;;;5017715;28;20429;-75
2021/09/04 12:16:34;;;;;;;0.40;0.30;;;26.00;87.00;;;;;;5005661;28;20414;-74
2021/09/04 12:19:16;;;;;;;0.40;0.20;;;26.00;87.60;;;;;;5013115;28;20411;-72
2021/09/04 12:21:51;;;;;;;0.40;0.20;;;25.90;84.40;;;;;;5016659;28;20421;-72
2021/09/04 12:24:17;;;;;;;0.40;0.20;;;26.10;85.80;;;;;;5023379;28;20402;-75
2021/09/04 12:26:50;;;;;;;0.40;0.20;;;25.90;85.40;;;;;;5017467;28;20922;-71
2021/09/04 12:29:16;;;;;;;0.40;0.30;;;26.30;86.10;;;;;;5013111;28;20387;-73
2021/09/04 12:31:43;;;;;;;0.40;0.30;;;26.10;84.70;;;;;;5016914;28;20479;-72
2021/09/04 12:34:23;;;;;;;0.40;0.30;;;26.50;85.30;;;;;;5014372;28;20397;-73
2021/09/04 12:36:49;;;;;;;0.40;0.20;;;26.20;83.10;;;;;;5017009;28;20798;-71
2021/09/04 12:39:22;;;;;;;0.40;0.30;;;26.00;83.30;;;;;;5012820;28;20383;-81
2021/09/04 12:41:58;;;;;;;0.40;0.20;;;26.20;83.40;;;;;;5017302;28;20866;-80
2021/09/04 12:44:35;;;;;;;0.40;0.30;;;26.40;84.00;;;;;;5015846;28;20483;-73
2021/09/04 12:47:02;;;;;;;0.40;0.20;;;26.10;83.20;;;;;;5015079;28;20422;-75
2021/09/04 12:49:31;;;;;;;0.40;0.20;;;25.90;84.30;;;;;;5014297;28;20395;-75